createdAt,value
2022-12-29T00:00:48.639Z,1.25
2022-12-29T00:05:56.569Z,1.15
2022-12-29T00:10:58.323Z,1.10
2022-12-29T00:16:00.199Z,1.08
2022-12-29T00:21:20.468Z,1.10
2022-12-29T00:26:41.017Z,0.93
2022-12-29T00:32:01.569Z,0.70
2022-12-29T00:37:03.383Z,0.52
2022-12-29T00:42:25.680Z,0.95
2022-12-29T00:47:27.798Z,1.02
2022-12-29T00:52:29.694Z,0.77
2022-12-29T00:57:31.442Z,0.90
2022-12-29T01:02:33.415Z,1.60
2022-12-29T01:07:35.539Z,0.88
2022-12-29T01:12:43.135Z,0.90
2022-12-29T01:17:44.921Z,0.95
2022-12-29T01:22:46.901Z,1.10
2022-12-29T01:27:48.748Z,0.88
2022-12-29T01:32:50.523Z,1.02
2022-12-29T01:37:52.371Z,1.17
2022-12-29T01:42:54.240Z,1.00
2022-12-29T01:48:03.021Z,1.00
2022-12-29T01:53:16.523Z,1.15
2022-12-29T01:58:23.408Z,1.13
2022-12-29T02:03:27.673Z,1.13
2022-12-29T02:08:30.622Z,1.20
2022-12-29T02:13:32.717Z,1.17
2022-12-29T02:18:51.291Z,1.00
2022-12-29T02:23:59.070Z,0.80
2022-12-29T02:29:24.633Z,0.90
2022-12-29T02:34:32.402Z,0.60
2022-12-29T02:40:08.385Z,0.50
2022-12-29T02:45:21.712Z,0.50
2022-12-29T02:50:45.073Z,0.70
2022-12-29T02:55:51.167Z,0.60
2022-12-29T03:01:11.694Z,0.80
2022-12-29T03:06:33.478Z,0.50
2022-12-29T03:12:03.939Z,0.85
2022-12-29T03:17:15.637Z,0.47
2022-12-29T03:22:32.384Z,0.52
2022-12-29T03:27:37.993Z,0.45
2022-12-29T03:32:46.224Z,0.60
2022-12-29T03:38:00.884Z,0.32
2022-12-29T03:43:04.352Z,0.32
2022-12-29T03:48:06.259Z,0.40
2022-12-29T03:53:08.224Z,0.55
2022-12-29T03:58:10.080Z,0.90
2022-12-29T04:03:11.933Z,0.70
2022-12-29T04:08:13.793Z,0.85
2022-12-29T04:13:16.144Z,0.73
2022-12-29T04:18:20.007Z,0.80
2022-12-29T04:23:21.828Z,1.13
2022-12-29T04:28:23.924Z,0.77
2022-12-29T04:33:26.400Z,0.70
2022-12-29T04:38:28.234Z,0.52
2022-12-29T04:43:30.164Z,0.73
2022-12-29T04:48:31.961Z,0.93
2022-12-29T04:53:33.929Z,0.77
2022-12-29T04:58:36.764Z,1.20
2022-12-29T05:03:38.703Z,1.00
2022-12-29T05:08:40.558Z,0.90
2022-12-29T05:13:42.315Z,0.80
2022-12-29T05:18:44.164Z,1.60
2022-12-29T05:23:45.940Z,1.02
2022-12-29T05:28:47.706Z,0.98
2022-12-29T05:33:49.485Z,0.90
2022-12-29T05:38:51.402Z,0.80
2022-12-29T05:43:53.230Z,1.10
2022-12-29T05:48:54.972Z,1.67
2022-12-29T05:53:56.876Z,1.00
2022-12-29T05:58:58.700Z,1.85
2022-12-29T06:04:00.778Z,1.02
2022-12-29T06:09:02.653Z,0.88
2022-12-29T06:14:04.428Z,1.67
2022-12-29T06:19:06.185Z,1.25
2022-12-29T06:24:08.142Z,1.42
2022-12-29T06:29:10.231Z,1.00
2022-12-29T06:34:13.063Z,1.15
2022-12-29T06:39:15.046Z,1.02
2022-12-29T06:44:16.865Z,1.40
2022-12-29T06:49:18.726Z,1.88
2022-12-29T06:54:20.472Z,1.30
2022-12-29T06:59:22.283Z,0.90
2022-12-29T07:04:24.121Z,0.90
2022-12-29T07:09:26.264Z,1.30
2022-12-29T07:14:28.329Z,1.35
2022-12-29T07:19:30.093Z,2.03
2022-12-29T07:24:31.920Z,2.85
2022-12-29T07:29:33.811Z,1.33
2022-12-29T07:34:35.627Z,1.40
2022-12-29T07:39:37.405Z,1.30
2022-12-29T07:44:39.373Z,1.70
2022-12-29T07:49:41.162Z,1.50
2022-12-29T07:54:42.979Z,1.60
2022-12-29T07:59:44.762Z,1.00
2022-12-29T08:04:46.649Z,1.73
2022-12-29T08:09:48.441Z,1.30
2022-12-29T08:14:50.452Z,1.45
2022-12-29T08:19:52.214Z,1.30
2022-12-29T08:24:53.939Z,1.83
2022-12-29T08:29:55.735Z,1.60
2022-12-29T08:34:57.620Z,1.40
2022-12-29T08:40:01.028Z,1.42
2022-12-29T08:45:03.441Z,1.77
2022-12-29T08:50:05.735Z,1.23
2022-12-29T08:55:07.820Z,1.40
2022-12-29T09:00:10.381Z,1.48
2022-12-29T09:05:12.295Z,1.58
2022-12-29T09:10:14.204Z,1.48
2022-12-29T09:15:18.052Z,1.35
2022-12-29T09:20:20.492Z,1.65
2022-12-29T09:25:26.580Z,1.55
2022-12-29T09:30:28.350Z,1.88
2022-12-29T09:35:30.317Z,1.48
2022-12-29T09:40:34.325Z,1.45
2022-12-29T09:45:46.527Z,2.50
2022-12-29T09:51:00.064Z,2.38
2022-12-29T09:56:06.834Z,1.23
2022-12-29T10:01:32.066Z,1.40
2022-12-29T10:12:31.779Z,1.90
2022-12-29T10:18:09.640Z,2.00
2022-12-29T10:23:17.099Z,1.98
2022-12-29T10:28:21.594Z,1.85
2022-12-29T10:33:30.882Z,1.55
2022-12-29T10:38:43.498Z,1.50
2022-12-29T10:43:53.956Z,2.03
2022-12-29T10:48:55.758Z,1.75
2022-12-29T10:54:03.902Z,1.33
2022-12-29T10:59:26.441Z,1.42
2022-12-29T11:04:45.402Z,2.45
2022-12-29T11:09:47.533Z,1.25
2022-12-29T11:15:21.992Z,2.30
2022-12-29T11:20:39.529Z,2.40
2022-12-29T11:25:43.124Z,1.95
2022-12-29T11:30:45.162Z,1.45
2022-12-29T11:35:47.053Z,1.70
2022-12-29T11:40:49.784Z,2.28
2022-12-29T11:45:54.784Z,1.73
2022-12-29T11:51:00.686Z,1.92
2022-12-29T11:56:07.048Z,1.58
2022-12-29T12:01:38.062Z,1.50
2022-12-29T12:06:48.233Z,1.63
2022-12-29T12:11:54.979Z,1.80
2022-12-29T12:17:05.367Z,1.48
2022-12-29T12:22:16.987Z,1.20
2022-12-29T12:27:35.917Z,1.85
2022-12-29T12:32:49.446Z,1.58
2022-12-29T12:38:17.950Z,2.25
2022-12-29T12:43:45.225Z,1.83
2022-12-29T12:49:14.869Z,2.35
2022-12-29T12:54:44.520Z,1.58
2022-12-29T12:59:59.291Z,1.55
2022-12-29T13:05:28.993Z,1.98
2022-12-29T13:10:54.418Z,1.48
2022-12-29T13:16:14.906Z,1.65
2022-12-29T13:21:48.289Z,1.33
2022-12-29T13:26:59.924Z,2.15
2022-12-29T13:32:13.705Z,2.67
2022-12-29T13:37:19.390Z,1.77
2022-12-29T13:42:22.244Z,1.33
2022-12-29T13:47:42.440Z,1.45
2022-12-29T13:53:11.654Z,1.38
2022-12-29T13:58:24.138Z,2.25
2022-12-29T14:03:49.037Z,1.90
2022-12-29T14:09:03.337Z,1.65
2022-12-29T14:14:20.060Z,1.70
2022-12-29T14:19:29.823Z,1.70
2022-12-29T14:24:37.343Z,1.83
2022-12-29T14:29:44.047Z,1.90
2022-12-29T14:34:51.821Z,2.13
2022-12-29T14:40:20.320Z,1.90
2022-12-29T14:45:21.985Z,1.83
2022-12-29T14:50:31.549Z,2.97
2022-12-29T14:55:47.758Z,1.88
2022-12-29T15:00:50.364Z,2.15
2022-12-29T15:05:57.610Z,2.55
2022-12-29T15:11:13.103Z,2.75
2022-12-29T15:16:30.286Z,2.08
2022-12-29T15:21:37.374Z,2.33
2022-12-29T15:26:46.483Z,1.98
2022-12-29T15:31:49.821Z,1.23
2022-12-29T15:36:52.367Z,1.70
2022-12-29T15:42:02.368Z,1.30
2022-12-29T15:47:15.487Z,0.97
2022-12-29T15:52:26.549Z,1.30
2022-12-29T15:57:31.203Z,1.50
2022-12-29T16:02:34.880Z,1.50
2022-12-29T16:07:41.624Z,2.55
2022-12-29T16:12:43.936Z,1.45
2022-12-29T16:17:53.809Z,1.83
2022-12-29T16:23:00.974Z,1.60
2022-12-29T16:28:15.398Z,2.20
2022-12-29T16:33:38.548Z,2.05
2022-12-29T16:38:43.926Z,2.22
2022-12-29T16:43:45.724Z,2.75
2022-12-29T16:48:54.739Z,2.80
2022-12-29T16:53:57.453Z,2.35
2022-12-29T16:59:06.918Z,2.15
2022-12-29T17:04:14.214Z,2.90
2022-12-29T17:09:24.723Z,2.28
2022-12-29T17:14:58.696Z,3.00
2022-12-29T17:20:07.141Z,2.35
2022-12-29T17:25:14.414Z,2.65
2022-12-29T17:30:18.840Z,2.67
2022-12-29T17:35:22.428Z,2.30
2022-12-29T17:40:29.731Z,3.03
2022-12-29T17:45:32.774Z,2.00
2022-12-29T17:50:34.596Z,2.63
2022-12-29T17:55:38.394Z,2.83
2022-12-29T18:00:40.793Z,2.58
2022-12-29T18:05:42.793Z,2.33
2022-12-29T18:10:44.778Z,2.88
2022-12-29T18:15:47.253Z,2.90
2022-12-29T18:20:51.610Z,1.98
2022-12-29T18:25:59.177Z,2.15
2022-12-29T18:31:01.736Z,2.22
2022-12-29T18:36:05.828Z,2.30
2022-12-29T18:41:20.660Z,2.60
2022-12-29T18:46:23.883Z,2.08
2022-12-29T18:51:26.201Z,2.45
2022-12-29T18:56:28.043Z,2.67
2022-12-29T19:01:31.106Z,2.78
2022-12-29T19:06:33.068Z,2.40
2022-12-29T19:11:35.523Z,2.92
2022-12-29T19:16:37.465Z,2.47
2022-12-29T19:21:39.319Z,2.47
2022-12-29T19:26:41.458Z,3.40
2022-12-29T19:31:43.441Z,2.70
2022-12-29T19:36:46.046Z,3.00
2022-12-29T19:41:47.918Z,3.03
2022-12-29T19:46:49.922Z,2.25
2022-12-29T19:51:51.714Z,2.72
2022-12-29T19:56:53.514Z,2.33
2022-12-29T20:01:55.539Z,3.00
2022-12-29T20:06:57.456Z,2.70
2022-12-29T20:11:59.242Z,3.80
2022-12-29T20:17:11.249Z,2.70
2022-12-29T20:22:14.142Z,2.55
2022-12-29T20:27:16.286Z,2.00
2022-12-29T20:32:25.318Z,2.90
2022-12-29T20:37:27.462Z,2.88
2022-12-29T20:42:29.329Z,3.90
2022-12-29T20:47:31.551Z,3.28
2022-12-29T20:52:33.369Z,2.60
2022-12-29T20:57:56.995Z,2.00
2022-12-29T21:02:58.544Z,2.20
2022-12-29T21:08:00.418Z,3.05
2022-12-29T21:13:02.210Z,2.70
2022-12-29T21:18:04.044Z,2.92
2022-12-29T21:23:06.709Z,2.67
2022-12-29T21:28:12.193Z,2.70
2022-12-29T21:33:14.077Z,2.17
2022-12-29T21:38:15.859Z,3.28
2022-12-29T21:43:17.618Z,3.60
2022-12-29T21:48:23.681Z,2.53
2022-12-29T21:53:38.212Z,2.75
2022-12-29T21:59:00.385Z,1.75
2022-12-29T22:04:21.009Z,2.95
2022-12-29T22:09:43.823Z,2.67
2022-12-29T22:14:46.024Z,3.00
2022-12-29T22:19:47.822Z,2.17
2022-12-29T22:24:49.732Z,2.90
2022-12-29T22:29:51.712Z,2.45
2022-12-29T22:34:53.515Z,2.30
2022-12-29T22:39:55.501Z,2.40
2022-12-29T22:44:57.275Z,2.40
2022-12-29T22:49:59.021Z,3.42
2022-12-29T22:55:06.400Z,3.70
2022-12-29T23:00:09.769Z,3.08
2022-12-29T23:05:14.875Z,3.42
2022-12-29T23:10:17.107Z,3.08
2022-12-29T23:15:18.878Z,2.75
2022-12-29T23:20:20.658Z,1.90
2022-12-29T23:25:22.417Z,2.13
2022-12-29T23:30:24.204Z,2.65
2022-12-29T23:35:26.089Z,3.28
2022-12-29T23:40:27.865Z,2.80
2022-12-29T23:45:29.628Z,2.45
2022-12-29T23:50:32.164Z,2.92
2022-12-29T23:55:34.066Z,2.60
